sensor_id;sensor_type;location;lat;lon;timestamp;temperature;humidity
10249;DHT22;5169;50.560;9.714;2023-04-03T00:01:41;3.90;99.90
10249;DHT22;5169;50.560;9.714;2023-04-03T00:04:09;4.00;99.90
10249;DHT22;5169;50.560;9.714;2023-04-03T00:06:37;4.00;99.90
10249;DHT22;5169;50.560;9.714;2023-04-03T00:09:03;3.90;99.90
10249;DHT22;5169;50.560;9.714;2023-04-03T00:11:28;3.80;99.90
10249;DHT22;5169;50.560;9.714;2023-04-03T00:13:54;3.70;99.90
10249;DHT22;5169;50.560;9.714;2023-04-03T00:16:22;3.70;99.90
10249;DHT22;5169;50.560;9.714;2023-04-03T00:18:47;3.70;99.90
10249;DHT22;5169;50.560;9.714;2023-04-03T00:21:13;3.70;99.90
10249;DHT22;5169;50.560;9.714;2023-04-03T00:23:39;3.70;99.90
10249;DHT22;5169;50.560;9.714;2023-04-03T00:26:05;3.70;99.90
10249;DHT22;5169;50.560;9.714;2023-04-03T00:28:33;3.60;99.90
10249;DHT22;5169;50.560;9.714;2023-04-03T00:30:58;3.60;99.90
10249;DHT22;5169;50.560;9.714;2023-04-03T00:33:24;3.60;99.90
10249;DHT22;5169;50.560;9.714;2023-04-03T00:35:50;3.60;99.90
10249;DHT22;5169;50.560;9.714;2023-04-03T00:38:16;3.50;99.90
10249;DHT22;5169;50.560;9.714;2023-04-03T00:40:46;3.50;99.90
10249;DHT22;5169;50.560;9.714;2023-04-03T00:45:44;3.40;99.90
10249;DHT22;5169;50.560;9.714;2023-04-03T00:48:17;3.30;99.90
10249;DHT22;5169;50.560;9.714;2023-04-03T00:50:49;3.30;99.90
10249;DHT22;5169;50.560;9.714;2023-04-03T00:53:24;3.20;99.90
10249;DHT22;5169;50.560;9.714;2023-04-03T00:55:54;3.10;99.90
10249;DHT22;5169;50.560;9.714;2023-04-03T00:58:24;3.00;99.90
10249;DHT22;5169;50.560;9.714;2023-04-03T01:00:57;2.90;99.90
10249;DHT22;5169;50.560;9.714;2023-04-03T01:03:24;2.80;99.90
10249;DHT22;5169;50.560;9.714;2023-04-03T01:05:52;2.80;99.90
10249;DHT22;5169;50.560;9.714;2023-04-03T01:08:18;2.70;99.90
10249;DHT22;5169;50.560;9.714;2023-04-03T01:10:44;2.60;99.90
10249;DHT22;5169;50.560;9.714;2023-04-03T01:15:49;2.50;99.90
10249;DHT22;5169;50.560;9.714;2023-04-03T01:18:20;2.50;99.90
10249;DHT22;5169;50.560;9.714;2023-04-03T01:21:30;2.40;99.90
10249;DHT22;5169;50.560;9.714;2023-04-03T01:23:46;2.30;99.90
10249;DHT22;5169;50.560;9.714;2023-04-03T01:26:14;2.20;99.90
10249;DHT22;5169;50.560;9.714;2023-04-03T01:28:39;2.20;99.90
10249;DHT22;5169;50.560;9.714;2023-04-03T01:31:28;2.10;99.90
10249;DHT22;5169;50.560;9.714;2023-04-03T01:33:56;2.10;99.90
10249;DHT22;5169;50.560;9.714;2023-04-03T01:36:26;2.10;99.90
10249;DHT22;5169;50.560;9.714;2023-04-03T01:38:53;2.00;99.90
10249;DHT22;5169;50.560;9.714;2023-04-03T01:41:20;2.00;99.90
10249;DHT22;5169;50.560;9.714;2023-04-03T01:43:51;2.00;99.90
10249;DHT22;5169;50.560;9.714;2023-04-03T01:46:18;1.90;99.90
10249;DHT22;5169;50.560;9.714;2023-04-03T01:48:44;1.90;99.90
10249;DHT22;5169;50.560;9.714;2023-04-03T01:51:10;1.80;99.90
10249;DHT22;5169;50.560;9.714;2023-04-03T01:53:35;1.80;99.90
10249;DHT22;5169;50.560;9.714;2023-04-03T01:56:04;1.80;99.90
10249;DHT22;5169;50.560;9.714;2023-04-03T01:58:30;1.70;99.90
10249;DHT22;5169;50.560;9.714;2023-04-03T02:00:55;1.60;99.90
10249;DHT22;5169;50.560;9.714;2023-04-03T02:03:21;1.60;99.90
10249;DHT22;5169;50.560;9.714;2023-04-03T02:05:47;1.60;99.90
10249;DHT22;5169;50.560;9.714;2023-04-03T02:08:13;1.50;99.90
10249;DHT22;5169;50.560;9.714;2023-04-03T02:10:39;1.50;99.90
10249;DHT22;5169;50.560;9.714;2023-04-03T02:13:05;1.40;99.90
10249;DHT22;5169;50.560;9.714;2023-04-03T02:15:33;1.40;99.90
10249;DHT22;5169;50.560;9.714;2023-04-03T02:17:59;1.40;99.90
10249;DHT22;5169;50.560;9.714;2023-04-03T02:20:24;1.30;99.90
10249;DHT22;5169;50.560;9.714;2023-04-03T02:22:50;1.20;99.90
10249;DHT22;5169;50.560;9.714;2023-04-03T02:25:16;1.30;99.90
10249;DHT22;5169;50.560;9.714;2023-04-03T02:27:43;1.30;99.90
10249;DHT22;5169;50.560;9.714;2023-04-03T02:30:08;1.20;99.90
10249;DHT22;5169;50.560;9.714;2023-04-03T02:32:35;1.20;99.90
10249;DHT22;5169;50.560;9.714;2023-04-03T02:35:03;1.20;99.90
10249;DHT22;5169;50.560;9.714;2023-04-03T02:37:31;1.20;99.90
10249;DHT22;5169;50.560;9.714;2023-04-03T02:39:57;1.10;99.90
10249;DHT22;5169;50.560;9.714;2023-04-03T02:42:24;1.20;99.90
10249;DHT22;5169;50.560;9.714;2023-04-03T02:44:50;1.10;99.90
10249;DHT22;5169;50.560;9.714;2023-04-03T02:47:16;1.10;99.90
10249;DHT22;5169;50.560;9.714;2023-04-03T02:49:41;1.00;99.90
10249;DHT22;5169;50.560;9.714;2023-04-03T02:52:10;1.00;99.90
10249;DHT22;5169;50.560;9.714;2023-04-03T02:54:36;1.00;99.90
10249;DHT22;5169;50.560;9.714;2023-04-03T02:57:03;1.00;99.90
10249;DHT22;5169;50.560;9.714;2023-04-03T02:59:29;1.00;99.90
10249;DHT22;5169;50.560;9.714;2023-04-03T03:01:55;0.90;99.90
10249;DHT22;5169;50.560;9.714;2023-04-03T03:04:23;0.80;99.90
10249;DHT22;5169;50.560;9.714;2023-04-03T03:06:49;0.80;99.90
10249;DHT22;5169;50.560;9.714;2023-04-03T03:09:19;0.80;99.90
10249;DHT22;5169;50.560;9.714;2023-04-03T03:11:45;0.90;99.90
10249;DHT22;5169;50.560;9.714;2023-04-03T03:14:13;0.90;99.90
10249;DHT22;5169;50.560;9.714;2023-04-03T03:16:39;0.90;99.90
10249;DHT22;5169;50.560;9.714;2023-04-03T03:19:04;0.90;99.90
10249;DHT22;5169;50.560;9.714;2023-04-03T03:21:30;0.90;99.90
10249;DHT22;5169;50.560;9.714;2023-04-03T03:23:58;0.90;99.90
10249;DHT22;5169;50.560;9.714;2023-04-03T03:26:23;0.90;99.90
10249;DHT22;5169;50.560;9.714;2023-04-03T03:28:49;0.90;99.90
10249;DHT22;5169;50.560;9.714;2023-04-03T03:31:15;0.80;99.90
10249;DHT22;5169;50.560;9.714;2023-04-03T03:33:41;0.80;99.90
10249;DHT22;5169;50.560;9.714;2023-04-03T03:36:07;0.80;99.90
10249;DHT22;5169;50.560;9.714;2023-04-03T03:38:34;0.70;99.90
10249;DHT22;5169;50.560;9.714;2023-04-03T03:41:03;0.60;99.90
10249;DHT22;5169;50.560;9.714;2023-04-03T03:43:31;0.60;99.90
10249;DHT22;5169;50.560;9.714;2023-04-03T03:45:58;0.60;99.90
10249;DHT22;5169;50.560;9.714;2023-04-03T03:48:26;0.50;99.90
10249;DHT22;5169;50.560;9.714;2023-04-03T03:50:54;0.50;99.90
10249;DHT22;5169;50.560;9.714;2023-04-03T03:53:20;0.60;99.90
10249;DHT22;5169;50.560;9.714;2023-04-03T03:55:46;0.60;99.90
10249;DHT22;5169;50.560;9.714;2023-04-03T03:58:11;0.60;99.90
10249;DHT22;5169;50.560;9.714;2023-04-03T04:00:37;0.60;99.90
10249;DHT22;5169;50.560;9.714;2023-04-03T04:03:05;0.60;99.90
10249;DHT22;5169;50.560;9.714;2023-04-03T04:05:31;0.60;99.90
10249;DHT22;5169;50.560;9.714;2023-04-03T04:07:56;0.60;99.90
10249;DHT22;5169;50.560;9.714;2023-04-03T04:10:26;0.60;99.90
10249;DHT22;5169;50.560;9.714;2023-04-03T04:12:52;0.60;99.90
10249;DHT22;5169;50.560;9.714;2023-04-03T04:15:18;0.60;99.90
10249;DHT22;5169;50.560;9.714;2023-04-03T04:17:43;0.60;99.90
10249;DHT22;5169;50.560;9.714;2023-04-03T04:20:11;0.50;99.90
10249;DHT22;5169;50.560;9.714;2023-04-03T04:22:37;0.50;99.90
10249;DHT22;5169;50.560;9.714;2023-04-03T04:25:04;0.50;99.90
10249;DHT22;5169;50.560;9.714;2023-04-03T04:27:32;0.60;99.90
10249;DHT22;5169;50.560;9.714;2023-04-03T04:29:57;0.60;99.90
10249;DHT22;5169;50.560;9.714;2023-04-03T04:32:23;0.70;99.90
10249;DHT22;5169;50.560;9.714;2023-04-03T04:34:48;0.60;99.90
10249;DHT22;5169;50.560;9.714;2023-04-03T04:37:16;0.60;99.90
10249;DHT22;5169;50.560;9.714;2023-04-03T04:39:42;0.70;99.90
10249;DHT22;5169;50.560;9.714;2023-04-03T04:42:07;0.70;99.90
10249;DHT22;5169;50.560;9.714;2023-04-03T04:44:38;0.70;99.90
10249;DHT22;5169;50.560;9.714;2023-04-03T04:47:04;0.70;99.90
10249;DHT22;5169;50.560;9.714;2023-04-03T04:49:31;0.70;99.90
10249;DHT22;5169;50.560;9.714;2023-04-03T04:51:57;0.70;99.90
10249;DHT22;5169;50.560;9.714;2023-04-03T04:54:25;0.80;99.90
10249;DHT22;5169;50.560;9.714;2023-04-03T04:56:50;0.90;99.90
10249;DHT22;5169;50.560;9.714;2023-04-03T04:59:18;0.90;99.90
10249;DHT22;5169;50.560;9.714;2023-04-03T05:01:44;0.90;99.90
10249;DHT22;5169;50.560;9.714;2023-04-03T05:04:10;0.90;99.90
10249;DHT22;5169;50.560;9.714;2023-04-03T05:06:38;0.90;99.90
10249;DHT22;5169;50.560;9.714;2023-04-03T05:09:03;0.90;99.90
10249;DHT22;5169;50.560;9.714;2023-04-03T05:11:34;0.90;99.90
10249;DHT22;5169;50.560;9.714;2023-04-03T05:14:01;1.00;99.90
10249;DHT22;5169;50.560;9.714;2023-04-03T05:16:30;1.10;99.90
10249;DHT22;5169;50.560;9.714;2023-04-03T05:18:56;1.10;99.90
10249;DHT22;5169;50.560;9.714;2023-04-03T05:21:24;1.10;99.90
10249;DHT22;5169;50.560;9.714;2023-04-03T05:23:51;1.20;99.90
10249;DHT22;5169;50.560;9.714;2023-04-03T05:26:20;1.20;99.90
10249;DHT22;5169;50.560;9.714;2023-04-03T05:28:46;1.20;99.90
10249;DHT22;5169;50.560;9.714;2023-04-03T05:31:13;1.20;99.90
10249;DHT22;5169;50.560;9.714;2023-04-03T05:33:38;1.20;99.90
10249;DHT22;5169;50.560;9.714;2023-04-03T05:36:04;1.20;99.90
10249;DHT22;5169;50.560;9.714;2023-04-03T05:38:33;1.10;99.90
10249;DHT22;5169;50.560;9.714;2023-04-03T05:40:59;1.00;99.90
10249;DHT22;5169;50.560;9.714;2023-04-03T05:43:25;0.90;99.90
10249;DHT22;5169;50.560;9.714;2023-04-03T05:45:51;0.90;99.90
10249;DHT22;5169;50.560;9.714;2023-04-03T05:48:17;0.80;99.90
10249;DHT22;5169;50.560;9.714;2023-04-03T05:50:46;0.80;99.90
10249;DHT22;5169;50.560;9.714;2023-04-03T05:53:17;0.80;99.90
10249;DHT22;5169;50.560;9.714;2023-04-03T05:55:48;0.80;99.90
10249;DHT22;5169;50.560;9.714;2023-04-03T05:58:13;0.90;99.90
10249;DHT22;5169;50.560;9.714;2023-04-03T06:00:39;1.00;99.90
10249;DHT22;5169;50.560;9.714;2023-04-03T06:03:07;1.00;99.90
10249;DHT22;5169;50.560;9.714;2023-04-03T06:05:36;1.10;99.90
10249;DHT22;5169;50.560;9.714;2023-04-03T06:08:02;1.10;99.90
10249;DHT22;5169;50.560;9.714;2023-04-03T06:10:28;1.20;99.90
10249;DHT22;5169;50.560;9.714;2023-04-03T06:12:55;1.30;99.90
10249;DHT22;5169;50.560;9.714;2023-04-03T06:15:21;1.40;99.90
10249;DHT22;5169;50.560;9.714;2023-04-03T06:17:47;1.60;99.90
10249;DHT22;5169;50.560;9.714;2023-04-03T06:20:13;1.60;99.90
10249;DHT22;5169;50.560;9.714;2023-04-03T06:22:38;1.60;99.90
10249;DHT22;5169;50.560;9.714;2023-04-03T06:25:05;1.70;99.90
10249;DHT22;5169;50.560;9.714;2023-04-03T06:27:31;1.80;99.90
10249;DHT22;5169;50.560;9.714;2023-04-03T06:29:57;1.90;99.90
10249;DHT22;5169;50.560;9.714;2023-04-03T06:32:25;2.10;99.90
10249;DHT22;5169;50.560;9.714;2023-04-03T06:34:50;2.10;99.90
10249;DHT22;5169;50.560;9.714;2023-04-03T06:37:22;2.20;99.90
10249;DHT22;5169;50.560;9.714;2023-04-03T06:39:48;2.40;99.90
10249;DHT22;5169;50.560;9.714;2023-04-03T06:42:13;2.60;99.90
10249;DHT22;5169;50.560;9.714;2023-04-03T06:44:39;2.70;99.90
10249;DHT22;5169;50.560;9.714;2023-04-03T06:47:05;2.80;99.90
10249;DHT22;5169;50.560;9.714;2023-04-03T06:49:33;2.60;99.90
10249;DHT22;5169;50.560;9.714;2023-04-03T06:51:59;2.50;99.90
10249;DHT22;5169;50.560;9.714;2023-04-03T06:54:25;2.40;99.90
10249;DHT22;5169;50.560;9.714;2023-04-03T06:56:51;2.30;99.90
10249;DHT22;5169;50.560;9.714;2023-04-03T06:59:19;2.30;99.90
10249;DHT22;5169;50.560;9.714;2023-04-03T07:01:45;2.30;99.90
10249;DHT22;5169;50.560;9.714;2023-04-03T07:04:11;2.40;99.90
10249;DHT22;5169;50.560;9.714;2023-04-03T07:06:36;2.40;99.90
10249;DHT22;5169;50.560;9.714;2023-04-03T07:09:02;2.50;99.90
10249;DHT22;5169;50.560;9.714;2023-04-03T07:11:30;2.40;99.90
10249;DHT22;5169;50.560;9.714;2023-04-03T07:13:59;2.40;99.90
10249;DHT22;5169;50.560;9.714;2023-04-03T07:16:26;2.60;99.90
10249;DHT22;5169;50.560;9.714;2023-04-03T07:18:54;2.80;99.90
10249;DHT22;5169;50.560;9.714;2023-04-03T07:21:22;2.80;99.90
10249;DHT22;5169;50.560;9.714;2023-04-03T07:23:48;2.90;99.90
10249;DHT22;5169;50.560;9.714;2023-04-03T07:26:13;2.80;99.90
10249;DHT22;5169;50.560;9.714;2023-04-03T07:28:39;3.00;99.90
10249;DHT22;5169;50.560;9.714;2023-04-03T07:31:09;3.00;99.90
10249;DHT22;5169;50.560;9.714;2023-04-03T07:33:37;2.80;99.90
10249;DHT22;5169;50.560;9.714;2023-04-03T07:36:04;3.00;99.90
10249;DHT22;5169;50.560;9.714;2023-04-03T07:38:30;2.90;99.90
10249;DHT22;5169;50.560;9.714;2023-04-03T07:40:58;2.80;99.90
10249;DHT22;5169;50.560;9.714;2023-04-03T07:43:26;2.90;99.90
10249;DHT22;5169;50.560;9.714;2023-04-03T07:45:54;2.80;99.90
10249;DHT22;5169;50.560;9.714;2023-04-03T07:48:24;2.80;99.90
10249;DHT22;5169;50.560;9.714;2023-04-03T07:50:51;3.20;99.90
10249;DHT22;5169;50.560;9.714;2023-04-03T07:53:17;3.90;99.90
10249;DHT22;5169;50.560;9.714;2023-04-03T07:55:43;4.20;99.90
10249;DHT22;5169;50.560;9.714;2023-04-03T07:58:18;4.30;99.90
10249;DHT22;5169;50.560;9.714;2023-04-03T08:00:44;4.00;99.90
10249;DHT22;5169;50.560;9.714;2023-04-03T08:03:11;3.90;99.90
10249;DHT22;5169;50.560;9.714;2023-04-03T08:05:41;3.80;99.90
10249;DHT22;5169;50.560;9.714;2023-04-03T08:08:08;4.10;99.90
10249;DHT22;5169;50.560;9.714;2023-04-03T08:10:36;4.50;99.90
10249;DHT22;5169;50.560;9.714;2023-04-03T08:13:03;4.40;99.90
10249;DHT22;5169;50.560;9.714;2023-04-03T08:15:30;4.30;99.90
10249;DHT22;5169;50.560;9.714;2023-04-03T08:17:56;4.20;99.90
10249;DHT22;5169;50.560;9.714;2023-04-03T08:20:22;4.40;99.90
10249;DHT22;5169;50.560;9.714;2023-04-03T08:22:47;4.40;99.90
10249;DHT22;5169;50.560;9.714;2023-04-03T08:25:13;4.10;99.90
10249;DHT22;5169;50.560;9.714;2023-04-03T08:27:39;3.80;99.90
10249;DHT22;5169;50.560;9.714;2023-04-03T08:30:05;3.60;99.90
10249;DHT22;5169;50.560;9.714;2023-04-03T08:32:33;3.50;99.90
10249;DHT22;5169;50.560;9.714;2023-04-03T08:35:00;3.50;99.90
10249;DHT22;5169;50.560;9.714;2023-04-03T08:37:25;3.50;99.90
10249;DHT22;5169;50.560;9.714;2023-04-03T08:39:51;3.70;99.90
10249;DHT22;5169;50.560;9.714;2023-04-03T08:47:46;3.80;99.90
10249;DHT22;5169;50.560;9.714;2023-04-03T08:50:19;4.00;99.90
10249;DHT22;5169;50.560;9.714;2023-04-03T08:52:56;4.10;99.90
10249;DHT22;5169;50.560;9.714;2023-04-03T08:55:38;4.70;99.90
10249;DHT22;5169;50.560;9.714;2023-04-03T08:58:12;5.30;99.90
10249;DHT22;5169;50.560;9.714;2023-04-03T09:03:20;5.50;99.90
10249;DHT22;5169;50.560;9.714;2023-04-03T09:06:13;4.80;99.90
10249;DHT22;5169;50.560;9.714;2023-04-03T09:14:24;6.00;99.90
10249;DHT22;5169;50.560;9.714;2023-04-03T09:16:58;6.10;99.90
10249;DHT22;5169;50.560;9.714;2023-04-03T09:24:37;5.80;99.90
10249;DHT22;5169;50.560;9.714;2023-04-03T09:27:09;5.80;99.90
10249;DHT22;5169;50.560;9.714;2023-04-03T09:29:39;7.00;99.90
10249;DHT22;5169;50.560;9.714;2023-04-03T09:32:31;7.10;99.40
10249;DHT22;5169;50.560;9.714;2023-04-03T09:35:35;7.80;98.40
10249;DHT22;5169;50.560;9.714;2023-04-03T09:38:16;8.20;98.00
10249;DHT22;5169;50.560;9.714;2023-04-03T09:41:05;8.60;96.60
10249;DHT22;5169;50.560;9.714;2023-04-03T09:43:32;8.50;94.80
10249;DHT22;5169;50.560;9.714;2023-04-03T09:46:30;8.70;95.80
10249;DHT22;5169;50.560;9.714;2023-04-03T09:49:02;8.60;96.10
10249;DHT22;5169;50.560;9.714;2023-04-03T09:51:28;8.90;95.10
10249;DHT22;5169;50.560;9.714;2023-04-03T09:53:55;9.10;95.80
10249;DHT22;5169;50.560;9.714;2023-04-03T09:56:28;9.70;93.60
10249;DHT22;5169;50.560;9.714;2023-04-03T10:01:35;9.70;93.70
10249;DHT22;5169;50.560;9.714;2023-04-03T10:06:44;9.50;92.20
10249;DHT22;5169;50.560;9.714;2023-04-03T10:09:22;8.60;91.90
10249;DHT22;5169;50.560;9.714;2023-04-03T10:14:29;8.60;91.70
10249;DHT22;5169;50.560;9.714;2023-04-03T10:19:29;7.80;91.40
10249;DHT22;5169;50.560;9.714;2023-04-03T10:27:53;9.20;90.50
10249;DHT22;5169;50.560;9.714;2023-04-03T10:30:42;10.40;89.40
10249;DHT22;5169;50.560;9.714;2023-04-03T10:36:17;9.50;87.10
10249;DHT22;5169;50.560;9.714;2023-04-03T10:41:57;9.70;88.20
10249;DHT22;5169;50.560;9.714;2023-04-03T10:57:56;10.60;83.80
10249;DHT22;5169;50.560;9.714;2023-04-03T11:00:46;11.60;81.80
10249;DHT22;5169;50.560;9.714;2023-04-03T11:03:38;12.00;81.30
10249;DHT22;5169;50.560;9.714;2023-04-03T11:06:06;12.80;77.20
10249;DHT22;5169;50.560;9.714;2023-04-03T11:08:38;14.40;72.50
10249;DHT22;5169;50.560;9.714;2023-04-03T11:11:26;15.30;66.00
10249;DHT22;5169;50.560;9.714;2023-04-03T11:16:35;15.60;64.40
10249;DHT22;5169;50.560;9.714;2023-04-03T11:19:10;15.40;57.80
10249;DHT22;5169;50.560;9.714;2023-04-03T11:21:46;13.90;60.50
10249;DHT22;5169;50.560;9.714;2023-04-03T11:24:27;12.80;63.30
10249;DHT22;5169;50.560;9.714;2023-04-03T11:26:56;12.00;64.20
10249;DHT22;5169;50.560;9.714;2023-04-03T11:29:28;11.00;69.70
10249;DHT22;5169;50.560;9.714;2023-04-03T11:35:01;13.30;66.50
10249;DHT22;5169;50.560;9.714;2023-04-03T11:40:25;11.90;62.60
10249;DHT22;5169;50.560;9.714;2023-04-03T11:45:36;11.70;71.70
10249;DHT22;5169;50.560;9.714;2023-04-03T11:55:01;10.60;68.60
10249;DHT22;5169;50.560;9.714;2023-04-03T11:58:04;8.50;76.50
10249;DHT22;5169;50.560;9.714;2023-04-03T12:14:02;12.30;68.80
10249;DHT22;5169;50.560;9.714;2023-04-03T12:45:44;10.60;71.10
10249;DHT22;5169;50.560;9.714;2023-04-03T12:48:18;9.80;72.70
10249;DHT22;5169;50.560;9.714;2023-04-03T12:50:47;10.10;72.40
10249;DHT22;5169;50.560;9.714;2023-04-03T12:53:32;10.10;70.30
10249;DHT22;5169;50.560;9.714;2023-04-03T12:56:26;10.90;70.40
10249;DHT22;5169;50.560;9.714;2023-04-03T12:59:13;11.10;69.70
10249;DHT22;5169;50.560;9.714;2023-04-03T13:01:41;10.60;68.00
10249;DHT22;5169;50.560;9.714;2023-04-03T13:04:12;10.80;68.50
10249;DHT22;5169;50.560;9.714;2023-04-03T13:06:41;10.40;67.50
10249;DHT22;5169;50.560;9.714;2023-04-03T13:09:27;9.50;69.80
10249;DHT22;5169;50.560;9.714;2023-04-03T13:14:37;8.40;73.90
10249;DHT22;5169;50.560;9.714;2023-04-03T13:17:16;8.20;76.00
10249;DHT22;5169;50.560;9.714;2023-04-03T13:19:44;8.30;74.60
10249;DHT22;5169;50.560;9.714;2023-04-03T13:22:36;8.30;76.60
10249;DHT22;5169;50.560;9.714;2023-04-03T13:25:11;8.60;75.40
10249;DHT22;5169;50.560;9.714;2023-04-03T13:27:38;8.20;76.70
10249;DHT22;5169;50.560;9.714;2023-04-03T13:30:26;7.80;80.90
10249;DHT22;5169;50.560;9.714;2023-04-03T13:32:57;7.60;82.80
10249;DHT22;5169;50.560;9.714;2023-04-03T13:35:40;7.80;81.30
10249;DHT22;5169;50.560;9.714;2023-04-03T13:38:27;7.80;82.20
10249;DHT22;5169;50.560;9.714;2023-04-03T13:40:55;7.70;82.10
10249;DHT22;5169;50.560;9.714;2023-04-03T13:43:29;7.60;83.60
10249;DHT22;5169;50.560;9.714;2023-04-03T13:46:21;7.40;85.30
10249;DHT22;5169;50.560;9.714;2023-04-03T13:48:50;7.20;84.40
10249;DHT22;5169;50.560;9.714;2023-04-03T13:51:23;7.10;87.90
10249;DHT22;5169;50.560;9.714;2023-04-03T13:54:00;7.40;87.40
10249;DHT22;5169;50.560;9.714;2023-04-03T13:56:39;7.70;86.00
10249;DHT22;5169;50.560;9.714;2023-04-03T14:01:50;7.40;83.10
10249;DHT22;5169;50.560;9.714;2023-04-03T14:04:25;7.00;85.00
10249;DHT22;5169;50.560;9.714;2023-04-03T14:06:51;7.10;84.30
10249;DHT22;5169;50.560;9.714;2023-04-03T14:09:18;6.60;86.00
10249;DHT22;5169;50.560;9.714;2023-04-03T14:11:45;6.70;85.40
10249;DHT22;5169;50.560;9.714;2023-04-03T14:14:23;6.60;84.50
10249;DHT22;5169;50.560;9.714;2023-04-03T14:16:57;6.80;86.00
10249;DHT22;5169;50.560;9.714;2023-04-03T14:19:31;7.00;84.70
10249;DHT22;5169;50.560;9.714;2023-04-03T14:21:58;6.60;84.00
10249;DHT22;5169;50.560;9.714;2023-04-03T14:24:25;6.70;84.60
10249;DHT22;5169;50.560;9.714;2023-04-03T14:26:54;6.60;86.50
10249;DHT22;5169;50.560;9.714;2023-04-03T14:29:21;6.70;86.80
10249;DHT22;5169;50.560;9.714;2023-04-03T14:31:48;6.80;85.40
10249;DHT22;5169;50.560;9.714;2023-04-03T14:34:15;7.00;86.50
10249;DHT22;5169;50.560;9.714;2023-04-03T14:36:42;7.00;85.50
10249;DHT22;5169;50.560;9.714;2023-04-03T14:39:16;7.00;84.70
10249;DHT22;5169;50.560;9.714;2023-04-03T14:41:45;7.10;86.90
10249;DHT22;5169;50.560;9.714;2023-04-03T14:44:11;7.20;86.70
10249;DHT22;5169;50.560;9.714;2023-04-03T14:46:43;7.20;85.40
10249;DHT22;5169;50.560;9.714;2023-04-03T14:49:34;7.00;85.60
10249;DHT22;5169;50.560;9.714;2023-04-03T14:52:01;7.20;87.80
10249;DHT22;5169;50.560;9.714;2023-04-03T14:54:27;7.20;86.90
10249;DHT22;5169;50.560;9.714;2023-04-03T14:56:55;7.30;84.30
10249;DHT22;5169;50.560;9.714;2023-04-03T14:59:22;7.30;84.50
10249;DHT22;5169;50.560;9.714;2023-04-03T15:01:48;7.20;85.10
10249;DHT22;5169;50.560;9.714;2023-04-03T15:04:19;6.90;83.20
10249;DHT22;5169;50.560;9.714;2023-04-03T15:06:47;6.70;85.40
10249;DHT22;5169;50.560;9.714;2023-04-03T15:09:24;6.80;85.70
10249;DHT22;5169;50.560;9.714;2023-04-03T15:11:52;6.90;84.40
10249;DHT22;5169;50.560;9.714;2023-04-03T15:14:21;6.80;83.80
10249;DHT22;5169;50.560;9.714;2023-04-03T15:16:48;6.70;82.10
10249;DHT22;5169;50.560;9.714;2023-04-03T15:19:16;6.70;83.30
10249;DHT22;5169;50.560;9.714;2023-04-03T15:21:42;6.70;83.60
10249;DHT22;5169;50.560;9.714;2023-04-03T15:24:09;6.60;83.00
10249;DHT22;5169;50.560;9.714;2023-04-03T15:26:34;6.50;83.80
10249;DHT22;5169;50.560;9.714;2023-04-03T15:29:03;6.30;84.10
10249;DHT22;5169;50.560;9.714;2023-04-03T15:31:29;6.30;86.50
10249;DHT22;5169;50.560;9.714;2023-04-03T15:33:57;6.40;85.90
10249;DHT22;5169;50.560;9.714;2023-04-03T15:36:22;6.40;85.70
10249;DHT22;5169;50.560;9.714;2023-04-03T15:38:48;6.40;86.40
10249;DHT22;5169;50.560;9.714;2023-04-03T15:41:16;6.50;85.00
10249;DHT22;5169;50.560;9.714;2023-04-03T15:43:41;6.60;84.00
10249;DHT22;5169;50.560;9.714;2023-04-03T15:46:09;6.40;83.80
10249;DHT22;5169;50.560;9.714;2023-04-03T15:48:35;6.30;85.50
10249;DHT22;5169;50.560;9.714;2023-04-03T15:51:04;6.20;84.50
10249;DHT22;5169;50.560;9.714;2023-04-03T15:53:30;6.20;85.60
10249;DHT22;5169;50.560;9.714;2023-04-03T15:55:55;6.40;86.00
10249;DHT22;5169;50.560;9.714;2023-04-03T15:58:21;6.50;85.50
10249;DHT22;5169;50.560;9.714;2023-04-03T16:00:46;6.40;85.10
10249;DHT22;5169;50.560;9.714;2023-04-03T16:03:16;6.20;84.00
10249;DHT22;5169;50.560;9.714;2023-04-03T16:05:42;5.90;83.70
10249;DHT22;5169;50.560;9.714;2023-04-03T16:08:08;5.60;86.20
10249;DHT22;5169;50.560;9.714;2023-04-03T16:10:36;5.40;88.30
10249;DHT22;5169;50.560;9.714;2023-04-03T16:13:03;5.40;87.00
10249;DHT22;5169;50.560;9.714;2023-04-03T16:15:29;5.40;87.90
10249;DHT22;5169;50.560;9.714;2023-04-03T16:17:57;5.40;87.30
10249;DHT22;5169;50.560;9.714;2023-04-03T16:20:23;5.30;88.70
10249;DHT22;5169;50.560;9.714;2023-04-03T16:22:49;5.30;89.40
10249;DHT22;5169;50.560;9.714;2023-04-03T16:25:15;5.20;88.70
10249;DHT22;5169;50.560;9.714;2023-04-03T16:27:41;5.10;87.40
10249;DHT22;5169;50.560;9.714;2023-04-03T16:30:09;5.10;86.40
10249;DHT22;5169;50.560;9.714;2023-04-03T16:32:36;5.10;87.10
10249;DHT22;5169;50.560;9.714;2023-04-03T16:35:02;5.10;89.10
10249;DHT22;5169;50.560;9.714;2023-04-03T16:37:30;5.10;89.70
10249;DHT22;5169;50.560;9.714;2023-04-03T16:39:56;5.00;88.50
10249;DHT22;5169;50.560;9.714;2023-04-03T16:42:26;5.00;89.20
10249;DHT22;5169;50.560;9.714;2023-04-03T16:44:54;5.00;90.00
10249;DHT22;5169;50.560;9.714;2023-04-03T16:47:22;5.00;88.90
10249;DHT22;5169;50.560;9.714;2023-04-03T16:49:48;5.00;89.40
10249;DHT22;5169;50.560;9.714;2023-04-03T16:52:14;5.10;89.90
10249;DHT22;5169;50.560;9.714;2023-04-03T16:54:40;5.20;88.60
10249;DHT22;5169;50.560;9.714;2023-04-03T16:57:05;5.10;87.10
10249;DHT22;5169;50.560;9.714;2023-04-03T16:59:31;5.00;86.60
10249;DHT22;5169;50.560;9.714;2023-04-03T17:01:57;4.90;88.00
10249;DHT22;5169;50.560;9.714;2023-04-03T17:04:22;4.70;88.70
10249;DHT22;5169;50.560;9.714;2023-04-03T17:06:48;4.60;88.40
10249;DHT22;5169;50.560;9.714;2023-04-03T17:09:14;4.50;88.40
10249;DHT22;5169;50.560;9.714;2023-04-03T17:11:42;4.50;89.30
10249;DHT22;5169;50.560;9.714;2023-04-03T17:14:11;4.60;90.20
10249;DHT22;5169;50.560;9.714;2023-04-03T17:16:37;4.60;90.50
10249;DHT22;5169;50.560;9.714;2023-04-03T17:19:03;4.70;91.10
10249;DHT22;5169;50.560;9.714;2023-04-03T17:21:29;4.70;90.00
10249;DHT22;5169;50.560;9.714;2023-04-03T17:23:58;4.50;89.10
10249;DHT22;5169;50.560;9.714;2023-04-03T17:26:27;4.40;89.80
10249;DHT22;5169;50.560;9.714;2023-04-03T17:28:53;4.30;90.50
10249;DHT22;5169;50.560;9.714;2023-04-03T17:31:18;4.20;90.30
10249;DHT22;5169;50.560;9.714;2023-04-03T17:33:44;4.10;90.70
10249;DHT22;5169;50.560;9.714;2023-04-03T17:36:12;4.00;90.80
10249;DHT22;5169;50.560;9.714;2023-04-03T17:38:38;4.00;91.50
10249;DHT22;5169;50.560;9.714;2023-04-03T17:41:06;3.90;91.50
10249;DHT22;5169;50.560;9.714;2023-04-03T17:43:33;3.90;91.60
10249;DHT22;5169;50.560;9.714;2023-04-03T17:46:00;4.00;91.70
10249;DHT22;5169;50.560;9.714;2023-04-03T17:48:31;4.00;92.10
10249;DHT22;5169;50.560;9.714;2023-04-03T17:50:57;4.00;91.70
10249;DHT22;5169;50.560;9.714;2023-04-03T17:53:25;3.90;91.70
10249;DHT22;5169;50.560;9.714;2023-04-03T17:55:52;3.90;92.20
10249;DHT22;5169;50.560;9.714;2023-04-03T17:58:20;3.80;91.80
10249;DHT22;5169;50.560;9.714;2023-04-03T18:00:48;3.80;91.90
10249;DHT22;5169;50.560;9.714;2023-04-03T18:03:13;3.70;93.00
10249;DHT22;5169;50.560;9.714;2023-04-03T18:05:41;3.70;93.30
10249;DHT22;5169;50.560;9.714;2023-04-03T18:08:07;3.70;93.20
10249;DHT22;5169;50.560;9.714;2023-04-03T18:10:35;3.70;93.40
10249;DHT22;5169;50.560;9.714;2023-04-03T18:13:05;3.70;92.90
10249;DHT22;5169;50.560;9.714;2023-04-03T18:15:34;3.70;93.20
10249;DHT22;5169;50.560;9.714;2023-04-03T18:17:59;3.70;92.90